Terminal Aerodrome Forecast
Issued by NWS

Home | Current Version | Previous Version | Text Only | Print | Product List | Glossary On
Versions: 1 2 3 4 5 6 7 8 9 10 11 12 13 14
000
FTUS45 KRIW 200524
TAFCOD
TAF
KCOD 200524Z 2006/2106 VRB05KT P6SM SCT030 BKN060
      TEMPO 2006/2010 5SM -SN BKN030
     FM201000 34007KT P6SM VCFG SCT005 BKN035
     FM201800 VRB06KT P6SM SCT030 BKN050
     FM210000 23006KT P6SM SCT050
      AMD LTD TO CLD VIS AND WIND=

USA.gov is the U.S. government's official web portal to all federal, state and local government web resources and services.